sensor_id;sensor_type;location;lat;lon;timestamp;temperature;humidity
27368;DHT22;14839;48.106;11.618;2023-06-10T04:02:00;14.20;94.60
27368;DHT22;14839;48.106;11.618;2023-06-10T04:04:26;14.30;94.60
27368;DHT22;14839;48.106;11.618;2023-06-10T04:06:52;14.30;94.60
27368;DHT22;14839;48.106;11.618;2023-06-10T04:09:18;14.30;94.60
27368;DHT22;14839;48.106;11.618;2023-06-10T04:11:43;14.40;94.60
27368;DHT22;14839;48.106;11.618;2023-06-10T04:14:09;14.40;94.60
27368;DHT22;14839;48.106;11.618;2023-06-10T04:16:34;14.40;94.60
27368;DHT22;14839;48.106;11.618;2023-06-10T04:19:00;14.50;94.60
27368;DHT22;14839;48.106;11.618;2023-06-10T04:21:26;14.50;94.60
27368;DHT22;14839;48.106;11.618;2023-06-10T04:23:52;14.60;94.60
27368;DHT22;14839;48.106;11.618;2023-06-10T04:26:18;14.70;94.60
27368;DHT22;14839;48.106;11.618;2023-06-10T04:28:44;14.70;94.60
27368;DHT22;14839;48.106;11.618;2023-06-10T04:31:09;14.80;94.60
27368;DHT22;14839;48.106;11.618;2023-06-10T04:33:35;15.10;94.60
27368;DHT22;14839;48.106;11.618;2023-06-10T04:36:01;15.20;94.60
27368;DHT22;14839;48.106;11.618;2023-06-10T04:38:26;15.40;94.60
27368;DHT22;14839;48.106;11.618;2023-06-10T04:40:52;15.70;94.60
27368;DHT22;14839;48.106;11.618;2023-06-10T04:43:18;16.20;94.60
27368;DHT22;14839;48.106;11.618;2023-06-10T04:45:43;17.20;94.60
27368;DHT22;14839;48.106;11.618;2023-06-10T04:48:10;18.60;94.60
27368;DHT22;14839;48.106;11.618;2023-06-10T04:50:36;20.10;91.50
27368;DHT22;14839;48.106;11.618;2023-06-10T04:53:02;21.40;85.60
27368;DHT22;14839;48.106;11.618;2023-06-10T04:55:27;23.00;78.50
27368;DHT22;14839;48.106;11.618;2023-06-10T04:57:53;24.00;74.30
27368;DHT22;14839;48.106;11.618;2023-06-10T05:00:19;24.80;71.50
27368;DHT22;14839;48.106;11.618;2023-06-10T05:02:44;25.00;70.30
27368;DHT22;14839;48.106;11.618;2023-06-10T05:05:10;24.50;71.50
27368;DHT22;14839;48.106;11.618;2023-06-10T05:07:36;23.60;74.30
27368;DHT22;14839;48.106;11.618;2023-06-10T05:10:02;24.00;73.70
27368;DHT22;14839;48.106;11.618;2023-06-10T05:12:28;25.00;72.10
27368;DHT22;14839;48.106;11.618;2023-06-10T05:14:53;26.20;66.50
27368;DHT22;14839;48.106;11.618;2023-06-10T05:17:19;25.00;69.10
27368;DHT22;14839;48.106;11.618;2023-06-10T05:19:44;24.50;72.70
27368;DHT22;14839;48.106;11.618;2023-06-10T05:22:10;25.70;68.20
27368;DHT22;14839;48.106;11.618;2023-06-10T05:24:36;26.50;66.40
27368;DHT22;14839;48.106;11.618;2023-06-10T05:27:02;26.50;65.60
27368;DHT22;14839;48.106;11.618;2023-06-10T05:29:28;26.90;65.50
27368;DHT22;14839;48.106;11.618;2023-06-10T05:31:53;26.80;65.20
27368;DHT22;14839;48.106;11.618;2023-06-10T05:34:21;26.50;66.20
27368;DHT22;14839;48.106;11.618;2023-06-10T05:36:47;27.70;63.40
27368;DHT22;14839;48.106;11.618;2023-06-10T05:39:12;28.50;61.00
27368;DHT22;14839;48.106;11.618;2023-06-10T05:41:38;28.70;59.10
27368;DHT22;14839;48.106;11.618;2023-06-10T05:44:04;27.30;62.30
27368;DHT22;14839;48.106;11.618;2023-06-10T05:46:30;26.90;63.80
27368;DHT22;14839;48.106;11.618;2023-06-10T05:48:55;26.60;66.40
27368;DHT22;14839;48.106;11.618;2023-06-10T05:51:21;28.10;61.10
27368;DHT22;14839;48.106;11.618;2023-06-10T05:53:46;28.20;60.70
27368;DHT22;14839;48.106;11.618;2023-06-10T05:56:13;28.20;61.90
27368;DHT22;14839;48.106;11.618;2023-06-10T05:58:39;28.70;60.50
27368;DHT22;14839;48.106;11.618;2023-06-10T06:01:05;28.50;60.10
27368;DHT22;14839;48.106;11.618;2023-06-10T06:03:30;28.20;60.40
27368;DHT22;14839;48.106;11.618;2023-06-10T06:05:56;29.30;60.00
27368;DHT22;14839;48.106;11.618;2023-06-10T06:08:22;29.30;58.40
27368;DHT22;14839;48.106;11.618;2023-06-10T06:10:47;28.70;59.70
27368;DHT22;14839;48.106;11.618;2023-06-10T06:13:15;29.60;58.50
27368;DHT22;14839;48.106;11.618;2023-06-10T06:15:41;30.70;55.80
27368;DHT22;14839;48.106;11.618;2023-06-10T06:18:06;30.50;56.70
27368;DHT22;14839;48.106;11.618;2023-06-10T06:20:33;30.90;56.00
27368;DHT22;14839;48.106;11.618;2023-06-10T06:22:59;31.60;53.60
27368;DHT22;14839;48.106;11.618;2023-06-10T06:25:24;31.50;53.00
27368;DHT22;14839;48.106;11.618;2023-06-10T06:27:50;31.40;54.10
27368;DHT22;14839;48.106;11.618;2023-06-10T06:30:15;30.30;55.30
27368;DHT22;14839;48.106;11.618;2023-06-10T06:32:41;30.40;56.40
27368;DHT22;14839;48.106;11.618;2023-06-10T06:35:07;31.60;53.90
27368;DHT22;14839;48.106;11.618;2023-06-10T06:37:33;32.00;51.40
27368;DHT22;14839;48.106;11.618;2023-06-10T06:40:00;30.70;54.70
27368;DHT22;14839;48.106;11.618;2023-06-10T06:42:25;28.70;58.80
27368;DHT22;14839;48.106;11.618;2023-06-10T06:44:51;28.10;61.90
27368;DHT22;14839;48.106;11.618;2023-06-10T06:47:16;27.50;62.30
27368;DHT22;14839;48.106;11.618;2023-06-10T06:49:48;26.40;65.50
27368;DHT22;14839;48.106;11.618;2023-06-10T06:52:14;25.20;69.70
27368;DHT22;14839;48.106;11.618;2023-06-10T06:54:40;24.90;72.50
27368;DHT22;14839;48.106;11.618;2023-06-10T06:57:06;24.90;70.60
27368;DHT22;14839;48.106;11.618;2023-06-10T06:59:32;24.40;71.90
27368;DHT22;14839;48.106;11.618;2023-06-10T07:01:58;24.20;73.70
27368;DHT22;14839;48.106;11.618;2023-06-10T07:04:24;24.70;73.90
27368;DHT22;14839;48.106;11.618;2023-06-10T07:06:50;25.90;73.70
27368;DHT22;14839;48.106;11.618;2023-06-10T07:09:15;26.70;69.10
27368;DHT22;14839;48.106;11.618;2023-06-10T07:11:41;27.10;66.40
27368;DHT22;14839;48.106;11.618;2023-06-10T07:14:07;27.80;62.00
27368;DHT22;14839;48.106;11.618;2023-06-10T07:16:33;28.20;62.60
27368;DHT22;14839;48.106;11.618;2023-06-10T07:18:58;28.40;61.30
27368;DHT22;14839;48.106;11.618;2023-06-10T07:21:24;29.10;60.50
27368;DHT22;14839;48.106;11.618;2023-06-10T07:23:50;28.50;63.10
27368;DHT22;14839;48.106;11.618;2023-06-10T07:26:19;29.50;63.20
27368;DHT22;14839;48.106;11.618;2023-06-10T07:28:44;29.80;60.10
27368;DHT22;14839;48.106;11.618;2023-06-10T07:31:10;30.40;58.10
27368;DHT22;14839;48.106;11.618;2023-06-10T07:33:37;30.60;55.40
27368;DHT22;14839;48.106;11.618;2023-06-10T07:36:05;29.20;56.90
27368;DHT22;14839;48.106;11.618;2023-06-10T07:38:30;28.60;62.50
27368;DHT22;14839;48.106;11.618;2023-06-10T07:40:56;29.00;60.10
27368;DHT22;14839;48.106;11.618;2023-06-10T07:43:22;29.00;60.50
27368;DHT22;14839;48.106;11.618;2023-06-10T07:45:47;29.40;59.50
27368;DHT22;14839;48.106;11.618;2023-06-10T07:48:16;29.10;58.70
27368;DHT22;14839;48.106;11.618;2023-06-10T07:50:41;28.70;59.40
27368;DHT22;14839;48.106;11.618;2023-06-10T07:53:07;28.80;61.00
27368;DHT22;14839;48.106;11.618;2023-06-10T07:55:33;28.80;60.80
27368;DHT22;14839;48.106;11.618;2023-06-10T07:57:58;29.10;64.00
27368;DHT22;14839;48.106;11.618;2023-06-10T08:00:24;29.50;58.70
27368;DHT22;14839;48.106;11.618;2023-06-10T08:02:49;29.60;57.50
27368;DHT22;14839;48.106;11.618;2023-06-10T08:05:16;29.60;61.10
27368;DHT22;14839;48.106;11.618;2023-06-10T08:07:41;29.40;57.30
27368;DHT22;14839;48.106;11.618;2023-06-10T08:10:07;29.30;59.50
27368;DHT22;14839;48.106;11.618;2023-06-10T08:12:34;29.30;57.20
27368;DHT22;14839;48.106;11.618;2023-06-10T08:15:00;29.40;57.80
27368;DHT22;14839;48.106;11.618;2023-06-10T08:17:26;29.40;57.90
27368;DHT22;14839;48.106;11.618;2023-06-10T08:19:51;28.40;57.50
27368;DHT22;14839;48.106;11.618;2023-06-10T08:22:17;28.20;63.80
27368;DHT22;14839;48.106;11.618;2023-06-10T08:24:43;27.80;66.70
27368;DHT22;14839;48.106;11.618;2023-06-10T08:27:08;28.10;60.40
27368;DHT22;14839;48.106;11.618;2023-06-10T08:29:34;27.80;62.30
27368;DHT22;14839;48.106;11.618;2023-06-10T08:32:00;27.40;61.90
27368;DHT22;14839;48.106;11.618;2023-06-10T08:34:25;27.80;65.60
27368;DHT22;14839;48.106;11.618;2023-06-10T08:36:51;28.20;61.30
27368;DHT22;14839;48.106;11.618;2023-06-10T08:39:19;28.20;60.20
27368;DHT22;14839;48.106;11.618;2023-06-10T08:41:51;27.70;64.10
27368;DHT22;14839;48.106;11.618;2023-06-10T08:44:29;28.10;62.00
27368;DHT22;14839;48.106;11.618;2023-06-10T08:46:58;27.80;61.40
27368;DHT22;14839;48.106;11.618;2023-06-10T08:49:26;27.30;62.00
27368;DHT22;14839;48.106;11.618;2023-06-10T08:51:58;27.90;61.40
27368;DHT22;14839;48.106;11.618;2023-06-10T08:54:31;27.30;62.80
27368;DHT22;14839;48.106;11.618;2023-06-10T08:56:57;27.30;63.80
27368;DHT22;14839;48.106;11.618;2023-06-10T08:59:25;26.90;62.60
27368;DHT22;14839;48.106;11.618;2023-06-10T09:01:52;26.40;65.80
27368;DHT22;14839;48.106;11.618;2023-06-10T09:04:18;25.60;68.00
27368;DHT22;14839;48.106;11.618;2023-06-10T09:06:44;25.80;70.30
27368;DHT22;14839;48.106;11.618;2023-06-10T09:09:12;25.80;68.50
27368;DHT22;14839;48.106;11.618;2023-06-10T09:11:38;26.00;68.50
27368;DHT22;14839;48.106;11.618;2023-06-10T09:14:04;26.60;65.80
27368;DHT22;14839;48.106;11.618;2023-06-10T09:16:30;27.50;65.00
27368;DHT22;14839;48.106;11.618;2023-06-10T09:18:56;28.20;62.90
27368;DHT22;14839;48.106;11.618;2023-06-10T09:21:25;28.50;61.70
27368;DHT22;14839;48.106;11.618;2023-06-10T09:23:51;27.70;61.10
27368;DHT22;14839;48.106;11.618;2023-06-10T09:26:17;27.10;62.80
27368;DHT22;14839;48.106;11.618;2023-06-10T09:28:44;26.20;66.50
27368;DHT22;14839;48.106;11.618;2023-06-10T09:31:13;25.50;68.80
27368;DHT22;14839;48.106;11.618;2023-06-10T09:33:39;25.30;70.00
27368;DHT22;14839;48.106;11.618;2023-06-10T09:36:05;25.70;73.10
27368;DHT22;14839;48.106;11.618;2023-06-10T09:38:32;26.40;69.10
27368;DHT22;14839;48.106;11.618;2023-06-10T09:40:59;27.00;63.80
27368;DHT22;14839;48.106;11.618;2023-06-10T09:43:46;27.40;64.10
27368;DHT22;14839;48.106;11.618;2023-06-10T09:46:19;27.90;62.30
27368;DHT22;14839;48.106;11.618;2023-06-10T09:48:46;28.30;65.20
27368;DHT22;14839;48.106;11.618;2023-06-10T09:51:13;28.80;59.50
27368;DHT22;14839;48.106;11.618;2023-06-10T09:53:39;28.40;59.80
27368;DHT22;14839;48.106;11.618;2023-06-10T09:56:05;27.90;60.80
27368;DHT22;14839;48.106;11.618;2023-06-10T09:58:36;27.50;63.20
27368;DHT22;14839;48.106;11.618;2023-06-10T10:01:09;28.00;60.20
27368;DHT22;14839;48.106;11.618;2023-06-10T10:03:45;28.20;61.30
27368;DHT22;14839;48.106;11.618;2023-06-10T10:06:12;28.30;61.60
27368;DHT22;14839;48.106;11.618;2023-06-10T10:08:38;27.80;60.40
27368;DHT22;14839;48.106;11.618;2023-06-10T10:11:04;27.50;61.00
27368;DHT22;14839;48.106;11.618;2023-06-10T10:13:33;27.30;63.40
27368;DHT22;14839;48.106;11.618;2023-06-10T10:16:01;26.90;63.20
27368;DHT22;14839;48.106;11.618;2023-06-10T10:18:29;27.00;63.20
27368;DHT22;14839;48.106;11.618;2023-06-10T10:20:59;26.50;64.10
27368;DHT22;14839;48.106;11.618;2023-06-10T10:23:34;26.90;62.90
27368;DHT22;14839;48.106;11.618;2023-06-10T10:26:04;26.80;65.30
27368;DHT22;14839;48.106;11.618;2023-06-10T10:28:43;27.30;63.20
27368;DHT22;14839;48.106;11.618;2023-06-10T10:31:10;27.80;60.80
27368;DHT22;14839;48.106;11.618;2023-06-10T10:33:54;27.90;59.80
27368;DHT22;14839;48.106;11.618;2023-06-10T10:36:22;28.00;60.70
27368;DHT22;14839;48.106;11.618;2023-06-10T10:38:48;27.80;61.00
27368;DHT22;14839;48.106;11.618;2023-06-10T10:41:15;27.30;62.30
27368;DHT22;14839;48.106;11.618;2023-06-10T10:43:42;26.80;61.60
27368;DHT22;14839;48.106;11.618;2023-06-10T10:46:13;26.50;62.00
27368;DHT22;14839;48.106;11.618;2023-06-10T10:48:39;26.00;63.50
27368;DHT22;14839;48.106;11.618;2023-06-10T10:51:09;25.70;64.30
27368;DHT22;14839;48.106;11.618;2023-06-10T10:53:36;25.70;64.70
27368;DHT22;14839;48.106;11.618;2023-06-10T10:56:14;25.70;64.30
27368;DHT22;14839;48.106;11.618;2023-06-10T10:58:39;26.00;66.50
27368;DHT22;14839;48.106;11.618;2023-06-10T11:01:12;26.20;63.80
27368;DHT22;14839;48.106;11.618;2023-06-10T11:03:45;25.70;63.70
27368;DHT22;14839;48.106;11.618;2023-06-10T11:06:15;25.50;64.60
27368;DHT22;14839;48.106;11.618;2023-06-10T11:11:25;25.90;63.50
27368;DHT22;14839;48.106;11.618;2023-06-10T11:16:29;26.20;62.60
27368;DHT22;14839;48.106;11.618;2023-06-10T11:18:55;26.60;62.50
27368;DHT22;14839;48.106;11.618;2023-06-10T11:21:24;26.20;61.30
27368;DHT22;14839;48.106;11.618;2023-06-10T11:23:50;25.60;64.30
27368;DHT22;14839;48.106;11.618;2023-06-10T11:31:38;25.50;64.10
27368;DHT22;14839;48.106;11.618;2023-06-10T11:34:05;25.50;63.50
27368;DHT22;14839;48.106;11.618;2023-06-10T11:36:33;25.50;63.20
27368;DHT22;14839;48.106;11.618;2023-06-10T11:39:04;25.40;63.70
27368;DHT22;14839;48.106;11.618;2023-06-10T11:41:31;25.50;63.10
27368;DHT22;14839;48.106;11.618;2023-06-10T11:46:29;25.60;63.10
27368;DHT22;14839;48.106;11.618;2023-06-10T11:48:59;25.70;62.90
27368;DHT22;14839;48.106;11.618;2023-06-10T11:51:29;26.00;62.60
27368;DHT22;14839;48.106;11.618;2023-06-10T11:53:55;26.20;61.70
27368;DHT22;14839;48.106;11.618;2023-06-10T11:56:25;25.70;61.00
27368;DHT22;14839;48.106;11.618;2023-06-10T11:59:04;25.20;62.80
27368;DHT22;14839;48.106;11.618;2023-06-10T12:01:33;25.10;63.70
27368;DHT22;14839;48.106;11.618;2023-06-10T12:04:10;25.50;63.20
27368;DHT22;14839;48.106;11.618;2023-06-10T12:09:23;25.90;60.80
27368;DHT22;14839;48.106;11.618;2023-06-10T12:12:03;26.20;60.70
27368;DHT22;14839;48.106;11.618;2023-06-10T12:17:21;26.80;58.50
27368;DHT22;14839;48.106;11.618;2023-06-10T12:19:47;26.80;57.90
27368;DHT22;14839;48.106;11.618;2023-06-10T12:22:13;26.20;57.50
27368;DHT22;14839;48.106;11.618;2023-06-10T12:24:44;26.10;57.80
27368;DHT22;14839;48.106;11.618;2023-06-10T12:27:13;26.20;57.90
27368;DHT22;14839;48.106;11.618;2023-06-10T12:29:39;26.30;58.90
27368;DHT22;14839;48.106;11.618;2023-06-10T12:32:15;26.50;57.50
27368;DHT22;14839;48.106;11.618;2023-06-10T12:34:42;26.70;57.60
27368;DHT22;14839;48.106;11.618;2023-06-10T12:37:12;27.00;55.50
27368;DHT22;14839;48.106;11.618;2023-06-10T12:39:41;27.40;54.50
27368;DHT22;14839;48.106;11.618;2023-06-10T12:42:09;27.50;53.20
27368;DHT22;14839;48.106;11.618;2023-06-10T12:44:44;26.90;55.70
27368;DHT22;14839;48.106;11.618;2023-06-10T12:47:10;27.00;55.70
27368;DHT22;14839;48.106;11.618;2023-06-10T12:49:38;27.10;54.20
27368;DHT22;14839;48.106;11.618;2023-06-10T12:52:04;27.30;55.30
27368;DHT22;14839;48.106;11.618;2023-06-10T12:54:30;27.40;55.30
27368;DHT22;14839;48.106;11.618;2023-06-10T12:56:56;27.40;56.00
27368;DHT22;14839;48.106;11.618;2023-06-10T12:59:21;27.00;59.50
27368;DHT22;14839;48.106;11.618;2023-06-10T13:01:51;26.30;62.60
27368;DHT22;14839;48.106;11.618;2023-06-10T13:04:17;25.90;64.40
27368;DHT22;14839;48.106;11.618;2023-06-10T13:06:44;25.70;65.20
27368;DHT22;14839;48.106;11.618;2023-06-10T13:09:09;25.70;66.70
27368;DHT22;14839;48.106;11.618;2023-06-10T13:11:35;25.80;67.10
27368;DHT22;14839;48.106;11.618;2023-06-10T13:14:02;26.00;65.90
27368;DHT22;14839;48.106;11.618;2023-06-10T13:16:28;26.00;65.30
27368;DHT22;14839;48.106;11.618;2023-06-10T13:18:54;26.30;65.20
27368;DHT22;14839;48.106;11.618;2023-06-10T13:21:19;25.70;65.30
27368;DHT22;14839;48.106;11.618;2023-06-10T13:23:46;25.50;66.10
27368;DHT22;14839;48.106;11.618;2023-06-10T13:26:14;25.30;67.30
27368;DHT22;14839;48.106;11.618;2023-06-10T13:28:40;25.20;67.90
27368;DHT22;14839;48.106;11.618;2023-06-10T13:31:05;25.30;67.60
27368;DHT22;14839;48.106;11.618;2023-06-10T13:33:31;25.60;66.80
27368;DHT22;14839;48.106;11.618;2023-06-10T13:35:56;25.50;66.50
27368;DHT22;14839;48.106;11.618;2023-06-10T13:38:22;25.60;66.80
27368;DHT22;14839;48.106;11.618;2023-06-10T13:40:48;25.20;67.30
27368;DHT22;14839;48.106;11.618;2023-06-10T13:43:13;25.10;67.10
27368;DHT22;14839;48.106;11.618;2023-06-10T13:45:39;25.00;67.40
27368;DHT22;14839;48.106;11.618;2023-06-10T13:48:05;25.10;67.10
27368;DHT22;14839;48.106;11.618;2023-06-10T13:50:31;25.10;67.10
27368;DHT22;14839;48.106;11.618;2023-06-10T13:52:57;25.30;64.40
27368;DHT22;14839;48.106;11.618;2023-06-10T13:55:22;25.20;64.90
27368;DHT22;14839;48.106;11.618;2023-06-10T13:57:50;25.10;65.20
27368;DHT22;14839;48.106;11.618;2023-06-10T14:00:16;25.10;65.60
27368;DHT22;14839;48.106;11.618;2023-06-10T14:02:41;25.20;65.30
27368;DHT22;14839;48.106;11.618;2023-06-10T14:05:07;25.40;64.40
27368;DHT22;14839;48.106;11.618;2023-06-10T14:07:34;25.30;64.40
27368;DHT22;14839;48.106;11.618;2023-06-10T14:10:00;25.30;63.50
27368;DHT22;14839;48.106;11.618;2023-06-10T14:12:25;25.30;63.20
27368;DHT22;14839;48.106;11.618;2023-06-10T14:14:51;25.20;63.70
27368;DHT22;14839;48.106;11.618;2023-06-10T14:17:16;25.00;63.50
27368;DHT22;14839;48.106;11.618;2023-06-10T14:19:42;24.70;65.00
27368;DHT22;14839;48.106;11.618;2023-06-10T14:22:07;24.80;64.60
27368;DHT22;14839;48.106;11.618;2023-06-10T14:24:34;24.80;65.60
27368;DHT22;14839;48.106;11.618;2023-06-10T14:27:00;24.80;64.40
27368;DHT22;14839;48.106;11.618;2023-06-10T14:29:26;24.60;65.90
27368;DHT22;14839;48.106;11.618;2023-06-10T14:31:56;24.70;67.10
27368;DHT22;14839;48.106;11.618;2023-06-10T14:34:22;24.70;66.70
27368;DHT22;14839;48.106;11.618;2023-06-10T14:36:49;24.40;67.40
27368;DHT22;14839;48.106;11.618;2023-06-10T14:39:14;24.20;68.00
27368;DHT22;14839;48.106;11.618;2023-06-10T14:41:40;24.30;66.40
27368;DHT22;14839;48.106;11.618;2023-06-10T14:44:05;24.30;65.60
27368;DHT22;14839;48.106;11.618;2023-06-10T14:46:31;24.50;64.00
27368;DHT22;14839;48.106;11.618;2023-06-10T14:48:56;24.70;63.10
27368;DHT22;14839;48.106;11.618;2023-06-10T14:51:24;24.90;61.70
27368;DHT22;14839;48.106;11.618;2023-06-10T14:53:50;25.10;60.70
27368;DHT22;14839;48.106;11.618;2023-06-10T14:56:16;25.20;61.60
27368;DHT22;14839;48.106;11.618;2023-06-10T14:58:41;25.40;61.40
27368;DHT22;14839;48.106;11.618;2023-06-10T15:01:07;25.50;61.00
27368;DHT22;14839;48.106;11.618;2023-06-10T15:03:32;25.60;61.00
27368;DHT22;14839;48.106;11.618;2023-06-10T15:05:58;25.70;62.50
27368;DHT22;14839;48.106;11.618;2023-06-10T15:08:25;25.50;63.10
27368;DHT22;14839;48.106;11.618;2023-06-10T15:10:51;25.50;65.20
27368;DHT22;14839;48.106;11.618;2023-06-10T15:13:17;25.50;67.00
27368;DHT22;14839;48.106;11.618;2023-06-10T15:15:42;25.50;67.90
27368;DHT22;14839;48.106;11.618;2023-06-10T15:18:08;25.70;67.40
27368;DHT22;14839;48.106;11.618;2023-06-10T15:20:33;25.60;66.20
27368;DHT22;14839;48.106;11.618;2023-06-10T15:22:59;25.30;66.50
27368;DHT22;14839;48.106;11.618;2023-06-10T15:25:25;25.00;66.20
27368;DHT22;14839;48.106;11.618;2023-06-10T15:27:51;25.00;66.70
27368;DHT22;14839;48.106;11.618;2023-06-10T15:30:17;24.90;65.80
27368;DHT22;14839;48.106;11.618;2023-06-10T15:32:43;24.80;65.00
27368;DHT22;14839;48.106;11.618;2023-06-10T15:35:08;24.80;65.30
27368;DHT22;14839;48.106;11.618;2023-06-10T15:37:34;24.80;64.70
27368;DHT22;14839;48.106;11.618;2023-06-10T15:40:00;24.80;64.10
27368;DHT22;14839;48.106;11.618;2023-06-10T15:42:26;24.80;64.90
27368;DHT22;14839;48.106;11.618;2023-06-10T15:44:51;24.80;63.50
27368;DHT22;14839;48.106;11.618;2023-06-10T15:47:19;24.60;64.60
27368;DHT22;14839;48.106;11.618;2023-06-10T15:49:45;24.80;65.00
27368;DHT22;14839;48.106;11.618;2023-06-10T15:52:11;24.90;65.30
27368;DHT22;14839;48.106;11.618;2023-06-10T15:54:37;25.10;65.30
27368;DHT22;14839;48.106;11.618;2023-06-10T15:57:02;25.20;65.20
27368;DHT22;14839;48.106;11.618;2023-06-10T15:59:29;25.30;65.50
27368;DHT22;14839;48.106;11.618;2023-06-10T16:01:55;25.50;65.20
27368;DHT22;14839;48.106;11.618;2023-06-10T16:04:21;25.40;65.20
27368;DHT22;14839;48.106;11.618;2023-06-10T16:06:46;25.30;66.50
27368;DHT22;14839;48.106;11.618;2023-06-10T16:09:14;25.00;68.00
27368;DHT22;14839;48.106;11.618;2023-06-10T16:11:40;24.90;68.60
27368;DHT22;14839;48.106;11.618;2023-06-10T16:14:05;24.80;70.00
27368;DHT22;14839;48.106;11.618;2023-06-10T16:16:31;24.60;70.10
27368;DHT22;14839;48.106;11.618;2023-06-10T16:19:00;24.50;70.30
27368;DHT22;14839;48.106;11.618;2023-06-10T16:21:25;24.40;70.60
27368;DHT22;14839;48.106;11.618;2023-06-10T16:23:51;24.00;71.30
27368;DHT22;14839;48.106;11.618;2023-06-10T16:26:17;23.80;73.10
27368;DHT22;14839;48.106;11.618;2023-06-10T16:28:43;23.90;73.60
27368;DHT22;14839;48.106;11.618;2023-06-10T16:31:08;23.90;73.00
27368;DHT22;14839;48.106;11.618;2023-06-10T16:33:34;23.70;73.70
27368;DHT22;14839;48.106;11.618;2023-06-10T16:36:01;23.60;73.70
27368;DHT22;14839;48.106;11.618;2023-06-10T16:38:27;23.60;73.60
27368;DHT22;14839;48.106;11.618;2023-06-10T16:40:52;23.80;72.80
27368;DHT22;14839;48.106;11.618;2023-06-10T16:43:18;23.70;72.40
27368;DHT22;14839;48.106;11.618;2023-06-10T16:45:44;23.70;73.00
27368;DHT22;14839;48.106;11.618;2023-06-10T16:48:10;23.70;73.30
27368;DHT22;14839;48.106;11.618;2023-06-10T16:50:35;23.70;73.30
27368;DHT22;14839;48.106;11.618;2023-06-10T16:53:01;23.70;73.40
27368;DHT22;14839;48.106;11.618;2023-06-10T16:55:26;23.70;73.60
27368;DHT22;14839;48.106;11.618;2023-06-10T16:57:52;23.70;73.40
27368;DHT22;14839;48.106;11.618;2023-06-10T17:00:18;23.80;73.70
27368;DHT22;14839;48.106;11.618;2023-06-10T17:02:43;23.90;74.20
27368;DHT22;14839;48.106;11.618;2023-06-10T17:05:09;24.00;73.10
27368;DHT22;14839;48.106;11.618;2023-06-10T17:07:34;24.10;71.90
27368;DHT22;14839;48.106;11.618;2023-06-10T17:10:00;23.70;71.90
27368;DHT22;14839;48.106;11.618;2023-06-10T17:12:26;23.80;73.30
27368;DHT22;14839;48.106;11.618;2023-06-10T17:14:51;23.90;71.50
27368;DHT22;14839;48.106;11.618;2023-06-10T17:17:17;23.90;72.70
27368;DHT22;14839;48.106;11.618;2023-06-10T17:19:43;24.10;73.00
27368;DHT22;14839;48.106;11.618;2023-06-10T17:22:08;24.00;73.30
27368;DHT22;14839;48.106;11.618;2023-06-10T17:24:34;23.90;74.50
27368;DHT22;14839;48.106;11.618;2023-06-10T17:26:59;23.60;80.20
27368;DHT22;14839;48.106;11.618;2023-06-10T17:29:25;22.80;90.70
27368;DHT22;14839;48.106;11.618;2023-06-10T17:31:51;22.40;93.90
27368;DHT22;14839;48.106;11.618;2023-06-10T17:34:17;21.90;94.60
27368;DHT22;14839;48.106;11.618;2023-06-10T17:36:43;21.60;94.60
27368;DHT22;14839;48.106;11.618;2023-06-10T17:39:09;21.00;94.60
27368;DHT22;14839;48.106;11.618;2023-06-10T17:41:36;20.80;94.60
27368;DHT22;14839;48.106;11.618;2023-06-10T17:44:02;20.60;94.60
27368;DHT22;14839;48.106;11.618;2023-06-10T17:46:30;20.50;94.60
27368;DHT22;14839;48.106;11.618;2023-06-10T17:48:56;20.40;94.60
27368;DHT22;14839;48.106;11.618;2023-06-10T17:51:21;20.30;94.60
27368;DHT22;14839;48.106;11.618;2023-06-10T17:53:47;20.00;94.60
27368;DHT22;14839;48.106;11.618;2023-06-10T17:56:13;19.90;94.60
27368;DHT22;14839;48.106;11.618;2023-06-10T17:58:42;19.80;94.60
27368;DHT22;14839;48.106;11.618;2023-06-10T18:01:08;19.80;94.60
27368;DHT22;14839;48.106;11.618;2023-06-10T18:03:33;19.90;94.60
27368;DHT22;14839;48.106;11.618;2023-06-10T18:06:02;19.90;94.60
27368;DHT22;14839;48.106;11.618;2023-06-10T18:08:27;19.90;94.60
27368;DHT22;14839;48.106;11.618;2023-06-10T18:10:54;19.80;94.60
27368;DHT22;14839;48.106;11.618;2023-06-10T18:13:19;19.80;94.60
27368;DHT22;14839;48.106;11.618;2023-06-10T18:15:45;19.70;94.60
27368;DHT22;14839;48.106;11.618;2023-06-10T18:18:11;19.60;94.60
27368;DHT22;14839;48.106;11.618;2023-06-10T18:20:36;19.40;94.60
27368;DHT22;14839;48.106;11.618;2023-06-10T18:23:02;19.50;94.60
27368;DHT22;14839;48.106;11.618;2023-06-10T18:25:27;19.40;94.60
27368;DHT22;14839;48.106;11.618;2023-06-10T18:27:53;19.30;94.60
27368;DHT22;14839;48.106;11.618;2023-06-10T18:30:19;19.20;94.60
27368;DHT22;14839;48.106;11.618;2023-06-10T18:32:44;19.20;94.60
27368;DHT22;14839;48.106;11.618;2023-06-10T18:35:10;19.10;94.60
27368;DHT22;14839;48.106;11.618;2023-06-10T18:37:35;19.00;94.60
27368;DHT22;14839;48.106;11.618;2023-06-10T18:40:01;19.10;94.60
27368;DHT22;14839;48.106;11.618;2023-06-10T18:42:27;19.00;94.60
27368;DHT22;14839;48.106;11.618;2023-06-10T18:44:53;19.00;94.60
27368;DHT22;14839;48.106;11.618;2023-06-10T18:47:18;19.00;94.60
27368;DHT22;14839;48.106;11.618;2023-06-10T18:49:45;18.80;94.60
27368;DHT22;14839;48.106;11.618;2023-06-10T18:52:11;18.80;94.60
27368;DHT22;14839;48.106;11.618;2023-06-10T18:54:37;18.80;94.60
27368;DHT22;14839;48.106;11.618;2023-06-10T18:57:03;18.70;94.60
27368;DHT22;14839;48.106;11.618;2023-06-10T18:59:28;18.70;94.60
27368;DHT22;14839;48.106;11.618;2023-06-10T19:01:54;18.60;94.60
27368;DHT22;14839;48.106;11.618;2023-06-10T19:04:19;18.60;94.60
27368;DHT22;14839;48.106;11.618;2023-06-10T19:06:45;18.60;94.60
27368;DHT22;14839;48.106;11.618;2023-06-10T19:09:11;18.60;94.60
27368;DHT22;14839;48.106;11.618;2023-06-10T19:11:36;18.60;94.60
27368;DHT22;14839;48.106;11.618;2023-06-10T19:14:02;18.50;94.60
27368;DHT22;14839;48.106;11.618;2023-06-10T19:16:28;18.50;94.60
27368;DHT22;14839;48.106;11.618;2023-06-10T19:18:53;18.40;94.60
27368;DHT22;14839;48.106;11.618;2023-06-10T19:21:19;18.40;94.60
27368;DHT22;14839;48.106;11.618;2023-06-10T19:23:45;18.40;94.60
27368;DHT22;14839;48.106;11.618;2023-06-10T19:26:11;18.40;94.60
27368;DHT22;14839;48.106;11.618;2023-06-10T19:28:37;18.30;94.60
27368;DHT22;14839;48.106;11.618;2023-06-10T19:31:02;18.20;94.60